sensor_id;sensor_type;location;lat;lon;timestamp;P1;durP1;ratioP1;P2;durP2;ratioP2
13048;SDS011;6591;51.446;5.404;2023-05-29T00:00:05;7.82;;;5.07;;
13048;SDS011;6591;51.446;5.404;2023-05-29T00:02:35;7.03;;;5.33;;
13048;SDS011;6591;51.446;5.404;2023-05-29T00:05:02;8.23;;;5.27;;
13048;SDS011;6591;51.446;5.404;2023-05-29T00:07:30;9.80;;;5.67;;
13048;SDS011;6591;51.446;5.404;2023-05-29T00:09:58;9.30;;;5.40;;
13048;SDS011;6591;51.446;5.404;2023-05-29T00:12:25;10.07;;;4.87;;
13048;SDS011;6591;51.446;5.404;2023-05-29T00:14:52;9.07;;;5.70;;
13048;SDS011;6591;51.446;5.404;2023-05-29T00:17:19;8.73;;;5.43;;
13048;SDS011;6591;51.446;5.404;2023-05-29T00:19:47;9.53;;;5.30;;
13048;SDS011;6591;51.446;5.404;2023-05-29T00:22:14;6.33;;;5.00;;
13048;SDS011;6591;51.446;5.404;2023-05-29T00:24:42;9.63;;;5.20;;
13048;SDS011;6591;51.446;5.404;2023-05-29T00:27:10;8.60;;;4.57;;
13048;SDS011;6591;51.446;5.404;2023-05-29T00:29:39;9.13;;;5.20;;
13048;SDS011;6591;51.446;5.404;2023-05-29T00:32:06;10.67;;;4.60;;
13048;SDS011;6591;51.446;5.404;2023-05-29T00:34:34;8.00;;;4.57;;
13048;SDS011;6591;51.446;5.404;2023-05-29T00:37:01;7.13;;;4.30;;
13048;SDS011;6591;51.446;5.404;2023-05-29T00:39:30;9.33;;;4.50;;
13048;SDS011;6591;51.446;5.404;2023-05-29T00:41:57;10.83;;;5.47;;
13048;SDS011;6591;51.446;5.404;2023-05-29T00:44:27;12.23;;;5.07;;
13048;SDS011;6591;51.446;5.404;2023-05-29T00:46:54;12.47;;;4.53;;
13048;SDS011;6591;51.446;5.404;2023-05-29T00:49:23;11.27;;;4.23;;
13048;SDS011;6591;51.446;5.404;2023-05-29T00:51:51;8.20;;;3.70;;
13048;SDS011;6591;51.446;5.404;2023-05-29T00:54:21;13.43;;;4.40;;
13048;SDS011;6591;51.446;5.404;2023-05-29T00:56:54;9.33;;;4.20;;
13048;SDS011;6591;51.446;5.404;2023-05-29T00:59:26;12.87;;;3.80;;
13048;SDS011;6591;51.446;5.404;2023-05-29T01:01:59;10.60;;;3.77;;
13048;SDS011;6591;51.446;5.404;2023-05-29T01:04:31;9.20;;;3.90;;
13048;SDS011;6591;51.446;5.404;2023-05-29T01:07:02;10.47;;;4.03;;
13048;SDS011;6591;51.446;5.404;2023-05-29T01:09:30;10.43;;;3.80;;
13048;SDS011;6591;51.446;5.404;2023-05-29T01:18:08;11.20;;;3.27;;
13048;SDS011;6591;51.446;5.404;2023-05-29T01:24:48;10.17;;;3.33;;
13048;SDS011;6591;51.446;5.404;2023-05-29T01:27:19;8.80;;;3.47;;
13048;SDS011;6591;51.446;5.404;2023-05-29T01:29:54;9.53;;;3.80;;
13048;SDS011;6591;51.446;5.404;2023-05-29T01:32:24;8.93;;;3.50;;
13048;SDS011;6591;51.446;5.404;2023-05-29T01:34:52;10.70;;;3.17;;
13048;SDS011;6591;51.446;5.404;2023-05-29T01:37:19;11.10;;;3.27;;
13048;SDS011;6591;51.446;5.404;2023-05-29T01:39:46;8.17;;;3.63;;
13048;SDS011;6591;51.446;5.404;2023-05-29T01:42:13;9.23;;;3.30;;
13048;SDS011;6591;51.446;5.404;2023-05-29T01:44:41;12.23;;;3.67;;
13048;SDS011;6591;51.446;5.404;2023-05-29T01:47:10;11.23;;;3.33;;
13048;SDS011;6591;51.446;5.404;2023-05-29T01:49:38;7.47;;;3.30;;
13048;SDS011;6591;51.446;5.404;2023-05-29T01:52:07;10.10;;;3.07;;
13048;SDS011;6591;51.446;5.404;2023-05-29T01:54:34;12.40;;;3.30;;
13048;SDS011;6591;51.446;5.404;2023-05-29T01:57:01;7.53;;;3.20;;
13048;SDS011;6591;51.446;5.404;2023-05-29T01:59:32;13.53;;;4.00;;
13048;SDS011;6591;51.446;5.404;2023-05-29T02:02:06;6.67;;;2.70;;
13048;SDS011;6591;51.446;5.404;2023-05-29T02:04:34;10.80;;;3.40;;
13048;SDS011;6591;51.446;5.404;2023-05-29T02:07:01;6.50;;;3.00;;
13048;SDS011;6591;51.446;5.404;2023-05-29T02:09:29;8.43;;;3.47;;
13048;SDS011;6591;51.446;5.404;2023-05-29T02:11:57;7.43;;;2.70;;
13048;SDS011;6591;51.446;5.404;2023-05-29T02:14:24;9.93;;;3.30;;
13048;SDS011;6591;51.446;5.404;2023-05-29T02:16:53;10.27;;;3.30;;
13048;SDS011;6591;51.446;5.404;2023-05-29T02:19:21;9.53;;;2.80;;
13048;SDS011;6591;51.446;5.404;2023-05-29T02:21:51;7.87;;;3.10;;
13048;SDS011;6591;51.446;5.404;2023-05-29T02:24:20;8.57;;;2.80;;
13048;SDS011;6591;51.446;5.404;2023-05-29T02:26:47;10.13;;;2.60;;
13048;SDS011;6591;51.446;5.404;2023-05-29T02:29:17;10.30;;;3.27;;
13048;SDS011;6591;51.446;5.404;2023-05-29T02:31:45;6.63;;;3.00;;
13048;SDS011;6591;51.446;5.404;2023-05-29T02:34:12;9.00;;;2.83;;
13048;SDS011;6591;51.446;5.404;2023-05-29T02:36:40;6.83;;;2.90;;
13048;SDS011;6591;51.446;5.404;2023-05-29T02:39:08;10.77;;;3.43;;
13048;SDS011;6591;51.446;5.404;2023-05-29T02:41:37;8.30;;;3.03;;
13048;SDS011;6591;51.446;5.404;2023-05-29T02:44:04;11.00;;;3.57;;
13048;SDS011;6591;51.446;5.404;2023-05-29T02:46:32;11.53;;;4.00;;
13048;SDS011;6591;51.446;5.404;2023-05-29T02:48:59;8.50;;;3.13;;
13048;SDS011;6591;51.446;5.404;2023-05-29T02:51:26;6.83;;;3.10;;
13048;SDS011;6591;51.446;5.404;2023-05-29T02:53:54;8.37;;;2.87;;
13048;SDS011;6591;51.446;5.404;2023-05-29T02:56:21;9.63;;;3.03;;
13048;SDS011;6591;51.446;5.404;2023-05-29T02:58:50;8.10;;;2.83;;
13048;SDS011;6591;51.446;5.404;2023-05-29T03:01:17;8.30;;;3.13;;
13048;SDS011;6591;51.446;5.404;2023-05-29T03:03:47;9.07;;;2.63;;
13048;SDS011;6591;51.446;5.404;2023-05-29T03:06:14;9.30;;;3.33;;
13048;SDS011;6591;51.446;5.404;2023-05-29T03:08:44;11.17;;;3.30;;
13048;SDS011;6591;51.446;5.404;2023-05-29T03:11:13;10.33;;;3.20;;
13048;SDS011;6591;51.446;5.404;2023-05-29T03:13:41;14.00;;;3.60;;
13048;SDS011;6591;51.446;5.404;2023-05-29T03:16:09;8.80;;;3.00;;
13048;SDS011;6591;51.446;5.404;2023-05-29T03:18:38;9.43;;;3.20;;
13048;SDS011;6591;51.446;5.404;2023-05-29T03:21:06;9.53;;;3.23;;
13048;SDS011;6591;51.446;5.404;2023-05-29T03:23:34;8.60;;;3.10;;
13048;SDS011;6591;51.446;5.404;2023-05-29T03:26:02;9.30;;;3.23;;
13048;SDS011;6591;51.446;5.404;2023-05-29T03:28:32;8.50;;;2.63;;
13048;SDS011;6591;51.446;5.404;2023-05-29T03:31:02;6.60;;;2.70;;
13048;SDS011;6591;51.446;5.404;2023-05-29T03:33:29;10.13;;;3.30;;
13048;SDS011;6591;51.446;5.404;2023-05-29T03:36:16;10.17;;;2.83;;
13048;SDS011;6591;51.446;5.404;2023-05-29T03:38:44;10.43;;;2.77;;
13048;SDS011;6591;51.446;5.404;2023-05-29T03:41:11;12.90;;;3.80;;
13048;SDS011;6591;51.446;5.404;2023-05-29T03:43:38;8.43;;;2.80;;
13048;SDS011;6591;51.446;5.404;2023-05-29T03:46:05;9.70;;;2.90;;
13048;SDS011;6591;51.446;5.404;2023-05-29T03:48:34;11.03;;;3.50;;
13048;SDS011;6591;51.446;5.404;2023-05-29T03:51:01;9.03;;;2.63;;
13048;SDS011;6591;51.446;5.404;2023-05-29T03:53:33;10.57;;;3.47;;
13048;SDS011;6591;51.446;5.404;2023-05-29T03:56:00;14.50;;;4.30;;
13048;SDS011;6591;51.446;5.404;2023-05-29T03:58:28;11.17;;;2.83;;
13048;SDS011;6591;51.446;5.404;2023-05-29T04:00:56;12.70;;;3.50;;
13048;SDS011;6591;51.446;5.404;2023-05-29T04:03:25;9.13;;;2.60;;
13048;SDS011;6591;51.446;5.404;2023-05-29T04:05:53;9.63;;;3.20;;
13048;SDS011;6591;51.446;5.404;2023-05-29T04:08:20;12.40;;;4.00;;
13048;SDS011;6591;51.446;5.404;2023-05-29T04:10:48;13.87;;;3.47;;
13048;SDS011;6591;51.446;5.404;2023-05-29T04:13:15;11.97;;;3.43;;
13048;SDS011;6591;51.446;5.404;2023-05-29T04:15:43;11.73;;;3.47;;
13048;SDS011;6591;51.446;5.404;2023-05-29T04:18:10;8.67;;;2.83;;
13048;SDS011;6591;51.446;5.404;2023-05-29T04:20:37;11.13;;;3.20;;
13048;SDS011;6591;51.446;5.404;2023-05-29T04:23:04;10.37;;;3.33;;
13048;SDS011;6591;51.446;5.404;2023-05-29T04:25:32;11.43;;;3.40;;
13048;SDS011;6591;51.446;5.404;2023-05-29T04:28:00;14.13;;;4.07;;
13048;SDS011;6591;51.446;5.404;2023-05-29T04:30:29;7.97;;;2.90;;
13048;SDS011;6591;51.446;5.404;2023-05-29T04:32:57;10.63;;;3.20;;
13048;SDS011;6591;51.446;5.404;2023-05-29T04:35:24;11.40;;;3.00;;
13048;SDS011;6591;51.446;5.404;2023-05-29T04:37:57;8.10;;;2.80;;
13048;SDS011;6591;51.446;5.404;2023-05-29T04:40:30;11.60;;;3.33;;
13048;SDS011;6591;51.446;5.404;2023-05-29T04:42:58;12.30;;;3.73;;
13048;SDS011;6591;51.446;5.404;2023-05-29T04:45:41;11.90;;;3.47;;
13048;SDS011;6591;51.446;5.404;2023-05-29T04:48:09;9.40;;;3.40;;
13048;SDS011;6591;51.446;5.404;2023-05-29T04:50:37;13.93;;;3.40;;
13048;SDS011;6591;51.446;5.404;2023-05-29T04:53:05;8.97;;;3.20;;
13048;SDS011;6591;51.446;5.404;2023-05-29T04:55:32;11.27;;;3.63;;
13048;SDS011;6591;51.446;5.404;2023-05-29T04:58:01;12.27;;;3.30;;
13048;SDS011;6591;51.446;5.404;2023-05-29T05:00:28;13.33;;;3.73;;
13048;SDS011;6591;51.446;5.404;2023-05-29T05:02:55;10.10;;;3.00;;
13048;SDS011;6591;51.446;5.404;2023-05-29T05:05:23;10.27;;;3.00;;
13048;SDS011;6591;51.446;5.404;2023-05-29T05:07:55;11.27;;;3.47;;
13048;SDS011;6591;51.446;5.404;2023-05-29T05:10:23;11.90;;;3.83;;
13048;SDS011;6591;51.446;5.404;2023-05-29T05:12:50;15.53;;;3.50;;
13048;SDS011;6591;51.446;5.404;2023-05-29T05:15:19;7.53;;;3.00;;
13048;SDS011;6591;51.446;5.404;2023-05-29T05:17:47;12.67;;;3.30;;
13048;SDS011;6591;51.446;5.404;2023-05-29T05:20:14;15.50;;;4.30;;
13048;SDS011;6591;51.446;5.404;2023-05-29T05:22:44;9.63;;;2.80;;
13048;SDS011;6591;51.446;5.404;2023-05-29T05:25:12;8.43;;;2.90;;
13048;SDS011;6591;51.446;5.404;2023-05-29T05:27:39;7.50;;;2.77;;
13048;SDS011;6591;51.446;5.404;2023-05-29T05:30:06;9.27;;;3.00;;
13048;SDS011;6591;51.446;5.404;2023-05-29T05:32:35;11.43;;;3.50;;
13048;SDS011;6591;51.446;5.404;2023-05-29T05:35:05;5.63;;;2.40;;
13048;SDS011;6591;51.446;5.404;2023-05-29T05:37:34;11.80;;;3.20;;
13048;SDS011;6591;51.446;5.404;2023-05-29T05:40:02;12.53;;;2.93;;
13048;SDS011;6591;51.446;5.404;2023-05-29T05:42:34;9.30;;;2.87;;
13048;SDS011;6591;51.446;5.404;2023-05-29T05:45:06;14.23;;;3.50;;
13048;SDS011;6591;51.446;5.404;2023-05-29T05:47:34;10.90;;;3.50;;
13048;SDS011;6591;51.446;5.404;2023-05-29T05:50:03;16.53;;;3.70;;
13048;SDS011;6591;51.446;5.404;2023-05-29T05:52:32;11.67;;;3.23;;
13048;SDS011;6591;51.446;5.404;2023-05-29T05:55:00;13.57;;;3.53;;
13048;SDS011;6591;51.446;5.404;2023-05-29T05:57:28;14.47;;;3.50;;
13048;SDS011;6591;51.446;5.404;2023-05-29T05:59:55;10.53;;;2.90;;
13048;SDS011;6591;51.446;5.404;2023-05-29T06:02:24;15.93;;;3.90;;
13048;SDS011;6591;51.446;5.404;2023-05-29T06:04:51;9.17;;;3.53;;
13048;SDS011;6591;51.446;5.404;2023-05-29T06:07:19;11.47;;;3.80;;
13048;SDS011;6591;51.446;5.404;2023-05-29T06:09:47;10.03;;;3.13;;
13048;SDS011;6591;51.446;5.404;2023-05-29T06:12:15;11.90;;;3.33;;
13048;SDS011;6591;51.446;5.404;2023-05-29T06:14:53;10.60;;;3.77;;
13048;SDS011;6591;51.446;5.404;2023-05-29T06:17:20;11.87;;;3.63;;
13048;SDS011;6591;51.446;5.404;2023-05-29T06:19:49;7.87;;;2.67;;
13048;SDS011;6591;51.446;5.404;2023-05-29T06:22:17;9.50;;;3.30;;
13048;SDS011;6591;51.446;5.404;2023-05-29T06:24:45;10.43;;;3.20;;
13048;SDS011;6591;51.446;5.404;2023-05-29T06:27:12;9.33;;;3.00;;
13048;SDS011;6591;51.446;5.404;2023-05-29T06:29:39;11.77;;;3.40;;
13048;SDS011;6591;51.446;5.404;2023-05-29T06:32:07;13.63;;;4.40;;
13048;SDS011;6591;51.446;5.404;2023-05-29T06:34:34;15.57;;;3.90;;
13048;SDS011;6591;51.446;5.404;2023-05-29T06:37:02;11.47;;;4.00;;
13048;SDS011;6591;51.446;5.404;2023-05-29T06:39:29;9.60;;;3.70;;
13048;SDS011;6591;51.446;5.404;2023-05-29T06:41:57;10.27;;;3.33;;
13048;SDS011;6591;51.446;5.404;2023-05-29T06:44:24;10.80;;;3.53;;
13048;SDS011;6591;51.446;5.404;2023-05-29T06:46:53;9.70;;;3.27;;
13048;SDS011;6591;51.446;5.404;2023-05-29T06:49:20;8.30;;;2.67;;
13048;SDS011;6591;51.446;5.404;2023-05-29T06:51:47;9.83;;;3.30;;
13048;SDS011;6591;51.446;5.404;2023-05-29T06:54:22;10.88;;;3.40;;
13048;SDS011;6591;51.446;5.404;2023-05-29T06:56:49;13.20;;;3.47;;
13048;SDS011;6591;51.446;5.404;2023-05-29T06:59:36;10.57;;;3.60;;
13048;SDS011;6591;51.446;5.404;2023-05-29T07:02:06;12.97;;;3.07;;
13048;SDS011;6591;51.446;5.404;2023-05-29T07:04:35;11.93;;;3.27;;
13048;SDS011;6591;51.446;5.404;2023-05-29T07:07:03;14.90;;;3.30;;
13048;SDS011;6591;51.446;5.404;2023-05-29T07:09:30;9.47;;;2.80;;
13048;SDS011;6591;51.446;5.404;2023-05-29T07:11:57;8.73;;;2.80;;
13048;SDS011;6591;51.446;5.404;2023-05-29T07:14:24;9.38;;;2.67;;
13048;SDS011;6591;51.446;5.404;2023-05-29T07:16:51;11.02;;;3.00;;
13048;SDS011;6591;51.446;5.404;2023-05-29T07:19:19;10.45;;;3.15;;
13048;SDS011;6591;51.446;5.404;2023-05-29T07:21:48;8.73;;;3.05;;
13048;SDS011;6591;51.446;5.404;2023-05-29T07:24:18;6.25;;;3.13;;
13048;SDS011;6591;51.446;5.404;2023-05-29T07:26:45;10.60;;;2.70;;
13048;SDS011;6591;51.446;5.404;2023-05-29T07:29:13;5.70;;;2.50;;
13048;SDS011;6591;51.446;5.404;2023-05-29T07:31:41;11.05;;;3.10;;
13048;SDS011;6591;51.446;5.404;2023-05-29T07:34:08;7.50;;;2.78;;
13048;SDS011;6591;51.446;5.404;2023-05-29T07:36:36;7.32;;;2.70;;
13048;SDS011;6591;51.446;5.404;2023-05-29T07:39:33;9.93;;;2.53;;
13048;SDS011;6591;51.446;5.404;2023-05-29T07:42:11;10.30;;;3.17;;
13048;SDS011;6591;51.446;5.404;2023-05-29T07:44:41;9.13;;;2.40;;
13048;SDS011;6591;51.446;5.404;2023-05-29T07:47:09;9.98;;;2.50;;
13048;SDS011;6591;51.446;5.404;2023-05-29T07:49:43;7.82;;;2.30;;
13048;SDS011;6591;51.446;5.404;2023-05-29T07:52:11;9.63;;;2.80;;
13048;SDS011;6591;51.446;5.404;2023-05-29T07:54:40;6.47;;;2.40;;
13048;SDS011;6591;51.446;5.404;2023-05-29T07:57:13;11.38;;;3.22;;
13048;SDS011;6591;51.446;5.404;2023-05-29T07:59:42;10.40;;;3.15;;
13048;SDS011;6591;51.446;5.404;2023-05-29T08:02:10;7.65;;;2.50;;
13048;SDS011;6591;51.446;5.404;2023-05-29T08:05:06;9.40;;;3.20;;
13048;SDS011;6591;51.446;5.404;2023-05-29T08:07:36;7.35;;;2.78;;
13048;SDS011;6591;51.446;5.404;2023-05-29T08:10:04;9.18;;;2.60;;
13048;SDS011;6591;51.446;5.404;2023-05-29T08:12:32;10.55;;;2.22;;
13048;SDS011;6591;51.446;5.404;2023-05-29T08:15:07;7.85;;;2.70;;
13048;SDS011;6591;51.446;5.404;2023-05-29T08:17:37;8.00;;;2.47;;
13048;SDS011;6591;51.446;5.404;2023-05-29T08:20:04;9.65;;;2.33;;
13048;SDS011;6591;51.446;5.404;2023-05-29T08:22:36;8.27;;;2.53;;
13048;SDS011;6591;51.446;5.404;2023-05-29T08:25:03;7.88;;;2.30;;
13048;SDS011;6591;51.446;5.404;2023-05-29T08:27:32;7.50;;;2.22;;
13048;SDS011;6591;51.446;5.404;2023-05-29T08:29:59;6.43;;;2.63;;
13048;SDS011;6591;51.446;5.404;2023-05-29T08:32:26;6.28;;;2.67;;
13048;SDS011;6591;51.446;5.404;2023-05-29T08:34:53;7.72;;;2.60;;
13048;SDS011;6591;51.446;5.404;2023-05-29T08:37:20;6.97;;;2.78;;
13048;SDS011;6591;51.446;5.404;2023-05-29T08:39:48;6.18;;;2.20;;
13048;SDS011;6591;51.446;5.404;2023-05-29T08:42:20;8.20;;;2.85;;
13048;SDS011;6591;51.446;5.404;2023-05-29T08:44:56;5.72;;;2.42;;
13048;SDS011;6591;51.446;5.404;2023-05-29T08:47:27;8.23;;;3.00;;
13048;SDS011;6591;51.446;5.404;2023-05-29T08:49:59;9.65;;;2.90;;
13048;SDS011;6591;51.446;5.404;2023-05-29T08:52:29;11.60;;;3.10;;
13048;SDS011;6591;51.446;5.404;2023-05-29T08:55:05;7.28;;;2.85;;
13048;SDS011;6591;51.446;5.404;2023-05-29T08:57:32;10.55;;;2.75;;
13048;SDS011;6591;51.446;5.404;2023-05-29T09:00:03;6.60;;;2.40;;
13048;SDS011;6591;51.446;5.404;2023-05-29T09:02:36;7.25;;;2.50;;
13048;SDS011;6591;51.446;5.404;2023-05-29T09:05:03;6.82;;;2.25;;
13048;SDS011;6591;51.446;5.404;2023-05-29T09:07:33;7.22;;;2.55;;
13048;SDS011;6591;51.446;5.404;2023-05-29T09:10:00;8.50;;;3.00;;
13048;SDS011;6591;51.446;5.404;2023-05-29T09:12:29;9.90;;;3.03;;
13048;SDS011;6591;51.446;5.404;2023-05-29T09:14:57;8.05;;;2.67;;
13048;SDS011;6591;51.446;5.404;2023-05-29T09:17:29;8.13;;;2.60;;
13048;SDS011;6591;51.446;5.404;2023-05-29T09:20:00;8.77;;;2.90;;
13048;SDS011;6591;51.446;5.404;2023-05-29T09:22:27;6.80;;;2.58;;
13048;SDS011;6591;51.446;5.404;2023-05-29T09:24:54;12.10;;;3.00;;
13048;SDS011;6591;51.446;5.404;2023-05-29T09:27:39;6.95;;;2.78;;
13048;SDS011;6591;51.446;5.404;2023-05-29T09:30:09;8.40;;;2.65;;
13048;SDS011;6591;51.446;5.404;2023-05-29T09:32:36;6.63;;;2.65;;
13048;SDS011;6591;51.446;5.404;2023-05-29T09:35:04;7.03;;;2.83;;
13048;SDS011;6591;51.446;5.404;2023-05-29T09:37:41;5.60;;;2.35;;
13048;SDS011;6591;51.446;5.404;2023-05-29T09:40:09;4.32;;;2.20;;
13048;SDS011;6591;51.446;5.404;2023-05-29T09:42:40;6.35;;;2.65;;
13048;SDS011;6591;51.446;5.404;2023-05-29T09:45:07;5.13;;;2.40;;
13048;SDS011;6591;51.446;5.404;2023-05-29T09:47:35;6.35;;;2.40;;
13048;SDS011;6591;51.446;5.404;2023-05-29T09:50:02;5.22;;;2.25;;
13048;SDS011;6591;51.446;5.404;2023-05-29T09:52:29;7.07;;;2.20;;
13048;SDS011;6591;51.446;5.404;2023-05-29T09:54:56;6.63;;;2.65;;
13048;SDS011;6591;51.446;5.404;2023-05-29T09:57:24;5.25;;;2.20;;
13048;SDS011;6591;51.446;5.404;2023-05-29T09:59:53;7.03;;;2.67;;
13048;SDS011;6591;51.446;5.404;2023-05-29T10:02:21;4.93;;;2.67;;
13048;SDS011;6591;51.446;5.404;2023-05-29T10:04:48;5.75;;;2.53;;
13048;SDS011;6591;51.446;5.404;2023-05-29T10:07:25;7.72;;;2.65;;
13048;SDS011;6591;51.446;5.404;2023-05-29T10:10:03;7.30;;;2.55;;
13048;SDS011;6591;51.446;5.404;2023-05-29T10:12:36;5.43;;;2.40;;
13048;SDS011;6591;51.446;5.404;2023-05-29T10:15:17;5.53;;;2.13;;
13048;SDS011;6591;51.446;5.404;2023-05-29T10:17:50;6.82;;;2.72;;
13048;SDS011;6591;51.446;5.404;2023-05-29T10:20:23;6.97;;;2.42;;
13048;SDS011;6591;51.446;5.404;2023-05-29T10:22:55;6.50;;;2.78;;
13048;SDS011;6591;51.446;5.404;2023-05-29T10:25:27;7.10;;;2.85;;
13048;SDS011;6591;51.446;5.404;2023-05-29T10:28:00;6.20;;;2.47;;
13048;SDS011;6591;51.446;5.404;2023-05-29T10:30:30;5.28;;;2.53;;
13048;SDS011;6591;51.446;5.404;2023-05-29T10:33:42;6.47;;;2.50;;
13048;SDS011;6591;51.446;5.404;2023-05-29T10:36:27;5.68;;;2.58;;
13048;SDS011;6591;51.446;5.404;2023-05-29T10:39:09;6.93;;;2.20;;
13048;SDS011;6591;51.446;5.404;2023-05-29T10:41:37;5.68;;;2.30;;
13048;SDS011;6591;51.446;5.404;2023-05-29T10:44:37;5.97;;;2.55;;
13048;SDS011;6591;51.446;5.404;2023-05-29T10:47:01;6.25;;;2.72;;
13048;SDS011;6591;51.446;5.404;2023-05-29T10:49:32;5.57;;;2.63;;
13048;SDS011;6591;51.446;5.404;2023-05-29T10:51:59;7.57;;;2.55;;
13048;SDS011;6591;51.446;5.404;2023-05-29T10:54:26;7.22;;;3.05;;
13048;SDS011;6591;51.446;5.404;2023-05-29T10:56:57;9.02;;;2.92;;
13048;SDS011;6591;51.446;5.404;2023-05-29T10:59:27;4.72;;;2.35;;
13048;SDS011;6591;51.446;5.404;2023-05-29T11:01:55;6.65;;;2.67;;
13048;SDS011;6591;51.446;5.404;2023-05-29T11:06:52;8.10;;;3.30;;
13048;SDS011;6591;51.446;5.404;2023-05-29T11:12:14;7.60;;;2.75;;
13048;SDS011;6591;51.446;5.404;2023-05-29T11:15:04;7.05;;;2.90;;
13048;SDS011;6591;51.446;5.404;2023-05-29T11:17:44;10.20;;;3.08;;
13048;SDS011;6591;51.446;5.404;2023-05-29T11:20:17;6.53;;;2.40;;
13048;SDS011;6591;51.446;5.404;2023-05-29T11:23:14;8.80;;;2.63;;
13048;SDS011;6591;51.446;5.404;2023-05-29T11:25:44;4.68;;;2.05;;
13048;SDS011;6591;51.446;5.404;2023-05-29T11:28:13;4.47;;;2.00;;
13048;SDS011;6591;51.446;5.404;2023-05-29T11:30:42;4.78;;;2.80;;
13048;SDS011;6591;51.446;5.404;2023-05-29T11:33:19;6.72;;;2.67;;
13048;SDS011;6591;51.446;5.404;2023-05-29T11:35:55;3.90;;;2.10;;
13048;SDS011;6591;51.446;5.404;2023-05-29T11:38:25;5.65;;;2.40;;
13048;SDS011;6591;51.446;5.404;2023-05-29T11:40:53;5.22;;;2.40;;
13048;SDS011;6591;51.446;5.404;2023-05-29T11:43:21;6.00;;;2.47;;
13048;SDS011;6591;51.446;5.404;2023-05-29T11:45:49;4.57;;;2.22;;
13048;SDS011;6591;51.446;5.404;2023-05-29T11:48:17;6.45;;;2.70;;
13048;SDS011;6591;51.446;5.404;2023-05-29T11:50:45;7.15;;;2.53;;
13048;SDS011;6591;51.446;5.404;2023-05-29T11:53:12;5.93;;;2.70;;
13048;SDS011;6591;51.446;5.404;2023-05-29T11:55:39;6.88;;;2.60;;
13048;SDS011;6591;51.446;5.404;2023-05-29T11:58:07;3.88;;;2.15;;
13048;SDS011;6591;51.446;5.404;2023-05-29T12:00:35;3.85;;;2.08;;
13048;SDS011;6591;51.446;5.404;2023-05-29T12:03:05;6.32;;;2.80;;
13048;SDS011;6591;51.446;5.404;2023-05-29T12:05:49;4.85;;;2.22;;
13048;SDS011;6591;51.446;5.404;2023-05-29T12:08:23;5.70;;;2.40;;
13048;SDS011;6591;51.446;5.404;2023-05-29T12:10:52;6.60;;;2.55;;
13048;SDS011;6591;51.446;5.404;2023-05-29T12:13:19;6.25;;;2.45;;
13048;SDS011;6591;51.446;5.404;2023-05-29T12:15:58;8.73;;;2.72;;
13048;SDS011;6591;51.446;5.404;2023-05-29T12:18:29;9.65;;;3.15;;
13048;SDS011;6591;51.446;5.404;2023-05-29T12:21:00;5.22;;;2.42;;
13048;SDS011;6591;51.446;5.404;2023-05-29T12:23:29;6.55;;;2.40;;
13048;SDS011;6591;51.446;5.404;2023-05-29T12:25:57;5.20;;;2.22;;
13048;SDS011;6591;51.446;5.404;2023-05-29T12:28:25;6.25;;;2.42;;
13048;SDS011;6591;51.446;5.404;2023-05-29T12:30:57;8.60;;;3.15;;
13048;SDS011;6591;51.446;5.404;2023-05-29T12:33:29;5.07;;;2.63;;
13048;SDS011;6591;51.446;5.404;2023-05-29T12:36:06;7.22;;;2.80;;
13048;SDS011;6591;51.446;5.404;2023-05-29T12:38:45;7.45;;;2.83;;
13048;SDS011;6591;51.446;5.404;2023-05-29T12:41:24;4.63;;;2.33;;
13048;SDS011;6591;51.446;5.404;2023-05-29T12:44:01;8.00;;;2.42;;
13048;SDS011;6591;51.446;5.404;2023-05-29T12:46:37;4.85;;;2.42;;
13048;SDS011;6591;51.446;5.404;2023-05-29T12:49:15;5.43;;;2.35;;
13048;SDS011;6591;51.446;5.404;2023-05-29T12:51:48;4.80;;;2.45;;
13048;SDS011;6591;51.446;5.404;2023-05-29T12:54:16;5.43;;;2.45;;
13048;SDS011;6591;51.446;5.404;2023-05-29T12:56:44;5.75;;;2.50;;
13048;SDS011;6591;51.446;5.404;2023-05-29T12:59:12;4.50;;;2.15;;
13048;SDS011;6591;51.446;5.404;2023-05-29T13:01:40;6.22;;;2.65;;
13048;SDS011;6591;51.446;5.404;2023-05-29T13:04:07;3.88;;;2.10;;
13048;SDS011;6591;51.446;5.404;2023-05-29T13:06:37;5.32;;;2.38;;
13048;SDS011;6591;51.446;5.404;2023-05-29T13:09:04;4.97;;;2.58;;
13048;SDS011;6591;51.446;5.404;2023-05-29T13:11:34;6.13;;;2.70;;
13048;SDS011;6591;51.446;5.404;2023-05-29T13:14:03;4.07;;;1.85;;
13048;SDS011;6591;51.446;5.404;2023-05-29T13:16:31;6.20;;;2.72;;
13048;SDS011;6591;51.446;5.404;2023-05-29T13:18:58;4.82;;;2.33;;
13048;SDS011;6591;51.446;5.404;2023-05-29T13:21:25;5.90;;;2.40;;
13048;SDS011;6591;51.446;5.404;2023-05-29T13:23:52;4.95;;;2.40;;
13048;SDS011;6591;51.446;5.404;2023-05-29T13:26:20;5.05;;;2.35;;
13048;SDS011;6591;51.446;5.404;2023-05-29T13:28:48;5.93;;;2.10;;
13048;SDS011;6591;51.446;5.404;2023-05-29T13:31:17;4.15;;;2.00;;
13048;SDS011;6591;51.446;5.404;2023-05-29T13:33:47;6.55;;;2.60;;
13048;SDS011;6591;51.446;5.404;2023-05-29T13:36:14;5.70;;;2.70;;
13048;SDS011;6591;51.446;5.404;2023-05-29T13:38:41;6.35;;;2.40;;
13048;SDS011;6591;51.446;5.404;2023-05-29T13:41:10;4.45;;;2.33;;
13048;SDS011;6591;51.446;5.404;2023-05-29T13:43:38;4.82;;;2.42;;
13048;SDS011;6591;51.446;5.404;2023-05-29T13:46:10;5.95;;;2.60;;
13048;SDS011;6591;51.446;5.404;2023-05-29T13:48:39;6.50;;;2.70;;
13048;SDS011;6591;51.446;5.404;2023-05-29T13:51:07;5.40;;;2.33;;
13048;SDS011;6591;51.446;5.404;2023-05-29T13:53:34;5.45;;;2.42;;
13048;SDS011;6591;51.446;5.404;2023-05-29T13:56:01;5.25;;;2.67;;
13048;SDS011;6591;51.446;5.404;2023-05-29T13:58:28;5.40;;;2.42;;
13048;SDS011;6591;51.446;5.404;2023-05-29T14:00:55;3.35;;;1.95;;
13048;SDS011;6591;51.446;5.404;2023-05-29T14:03:22;4.55;;;2.40;;
13048;SDS011;6591;51.446;5.404;2023-05-29T14:05:55;4.47;;;2.65;;
13048;SDS011;6591;51.446;5.404;2023-05-29T14:08:23;4.50;;;2.20;;
13048;SDS011;6591;51.446;5.404;2023-05-29T14:10:50;5.45;;;2.80;;
13048;SDS011;6591;51.446;5.404;2023-05-29T14:13:18;4.47;;;2.20;;
13048;SDS011;6591;51.446;5.404;2023-05-29T14:15:46;4.30;;;2.70;;
13048;SDS011;6591;51.446;5.404;2023-05-29T14:18:15;4.25;;;2.20;;
13048;SDS011;6591;51.446;5.404;2023-05-29T14:20:42;6.82;;;2.72;;
13048;SDS011;6591;51.446;5.404;2023-05-29T14:23:16;4.80;;;2.30;;
13048;SDS011;6591;51.446;5.404;2023-05-29T14:25:44;5.03;;;2.65;;
13048;SDS011;6591;51.446;5.404;2023-05-29T14:28:12;6.07;;;2.60;;
13048;SDS011;6591;51.446;5.404;2023-05-29T14:30:39;5.10;;;2.75;;
13048;SDS011;6591;51.446;5.404;2023-05-29T14:33:06;5.22;;;2.38;;
13048;SDS011;6591;51.446;5.404;2023-05-29T14:35:33;6.50;;;2.83;;
13048;SDS011;6591;51.446;5.404;2023-05-29T14:38:01;6.47;;;2.53;;
13048;SDS011;6591;51.446;5.404;2023-05-29T14:40:28;4.32;;;2.30;;
13048;SDS011;6591;51.446;5.404;2023-05-29T14:42:57;6.80;;;2.50;;
13048;SDS011;6591;51.446;5.404;2023-05-29T14:45:24;7.32;;;2.60;;
13048;SDS011;6591;51.446;5.404;2023-05-29T14:47:51;6.88;;;3.17;;
13048;SDS011;6591;51.446;5.404;2023-05-29T14:50:18;7.75;;;2.50;;
13048;SDS011;6591;51.446;5.404;2023-05-29T14:52:46;5.85;;;2.80;;
13048;SDS011;6591;51.446;5.404;2023-05-29T14:55:16;5.90;;;2.38;;
13048;SDS011;6591;51.446;5.404;2023-05-29T14:57:44;6.40;;;2.72;;
13048;SDS011;6591;51.446;5.404;2023-05-29T15:00:11;7.20;;;2.90;;
13048;SDS011;6591;51.446;5.404;2023-05-29T15:02:38;6.85;;;3.15;;
13048;SDS011;6591;51.446;5.404;2023-05-29T15:05:06;6.85;;;2.97;;
13048;SDS011;6591;51.446;5.404;2023-05-29T15:07:34;6.68;;;2.45;;
13048;SDS011;6591;51.446;5.404;2023-05-29T15:10:02;6.70;;;3.10;;
13048;SDS011;6591;51.446;5.404;2023-05-29T15:12:30;7.90;;;2.95;;
13048;SDS011;6591;51.446;5.404;2023-05-29T15:14:58;8.25;;;2.83;;
13048;SDS011;6591;51.446;5.404;2023-05-29T15:17:26;7.68;;;3.28;;
13048;SDS011;6591;51.446;5.404;2023-05-29T15:19:53;7.05;;;2.80;;
13048;SDS011;6591;51.446;5.404;2023-05-29T15:22:20;6.97;;;2.72;;
13048;SDS011;6591;51.446;5.404;2023-05-29T15:24:47;7.18;;;2.75;;
13048;SDS011;6591;51.446;5.404;2023-05-29T15:27:14;7.53;;;2.75;;